createdAt,value
2019-05-16T00:02:18.619Z,100701.34
2019-05-16T00:04:48.161Z,100694.63
2019-05-16T00:07:19.143Z,100681.45
2019-05-16T00:09:48.345Z,100683.55
2019-05-16T00:12:18.382Z,100678.84
2019-05-16T00:14:48.980Z,100674.39
2019-05-16T00:17:18.843Z,100675.67
2019-05-16T00:19:48.368Z,100667.30
2019-05-16T00:22:18.232Z,100662.94
2019-05-16T00:24:48.781Z,100661.20
2019-05-16T00:27:18.602Z,100660.19
2019-05-16T00:29:48.737Z,100654.84
2019-05-16T00:32:19.106Z,100655.28
2019-05-16T00:34:47.877Z,100652.47
2019-05-16T00:37:18.190Z,100650.11
2019-05-16T00:39:48.210Z,100646.53
2019-05-16T00:42:18.007Z,100644.31
2019-05-16T00:44:47.838Z,100638.97
2019-05-16T00:47:17.891Z,100638.06
2019-05-16T00:49:47.997Z,100637.27
2019-05-16T00:52:18.439Z,100628.45
2019-05-16T00:54:48.615Z,100631.27
2019-05-16T00:57:18.819Z,100635.94
2019-05-16T00:59:48.557Z,100635.24
2019-05-16T01:02:18.143Z,100625.77
2019-05-16T01:04:48.741Z,100619.44
2019-05-16T01:07:18.694Z,100617.66
2019-05-16T01:09:48.820Z,100613.45
2019-05-16T01:12:17.803Z,100615.63
2019-05-16T01:14:47.824Z,100611.41
2019-05-16T01:17:18.239Z,100610.75
2019-05-16T01:19:48.420Z,100598.27
2019-05-16T01:22:18.665Z,100594.12
2019-05-16T01:24:49.264Z,100596.87
2019-05-16T01:27:18.483Z,100598.22
2019-05-16T01:29:47.729Z,100597.17
2019-05-16T01:32:18.832Z,100595.76
2019-05-16T01:34:48.317Z,100585.42
2019-05-16T01:37:18.571Z,100587.74
2019-05-16T01:39:48.387Z,100588.79
2019-05-16T01:42:18.419Z,100585.27
2019-05-16T01:44:48.729Z,100574.72
2019-05-16T01:47:18.313Z,100571.14
2019-05-16T01:49:48.801Z,100571.91
2019-05-16T01:52:17.916Z,100581.47
2019-05-16T01:54:48.136Z,100579.09
2019-05-16T01:57:18.163Z,100584.00
2019-05-16T01:59:48.567Z,100578.25
2019-05-16T02:02:18.395Z,100570.85
2019-05-16T02:04:48.535Z,100570.85
2019-05-16T02:07:18.817Z,100575.08
2019-05-16T02:09:47.768Z,100573.73
2019-05-16T02:12:18.345Z,100570.48
2019-05-16T02:14:48.107Z,100572.31
2019-05-16T02:17:18.421Z,100572.67
2019-05-16T02:19:48.540Z,100564.94
2019-05-16T02:22:17.951Z,100561.84
2019-05-16T02:24:47.993Z,100566.21
2019-05-16T02:27:18.203Z,100567.06
2019-05-16T02:29:46.943Z,100564.52
2019-05-16T02:32:15.501Z,100563.66
2019-05-16T02:34:44.018Z,100563.19
2019-05-16T02:37:24.033Z,100565.17
2019-05-16T02:39:42.836Z,100560.03
2019-05-16T02:42:12.091Z,100560.67
2019-05-16T02:44:41.454Z,100562.14
2019-05-16T02:47:10.929Z,100560.81
2019-05-16T02:49:41.953Z,100563.75
2019-05-16T02:52:10.813Z,100562.13
2019-05-16T02:54:41.229Z,100551.78
2019-05-16T02:57:11.189Z,100549.39
2019-05-16T02:59:41.511Z,100541.09
2019-05-16T03:02:11.432Z,100539.11
2019-05-16T03:04:44.096Z,100543.15
2019-05-16T03:07:13.421Z,100538.99
2019-05-16T03:09:41.292Z,100530.77
2019-05-16T03:12:10.692Z,100536.53
2019-05-16T03:14:41.914Z,100530.07
2019-05-16T03:17:11.335Z,100522.20
2019-05-16T03:19:41.758Z,100519.15
2019-05-16T03:22:11.636Z,100511.08
2019-05-16T03:24:42.009Z,100514.97
2019-05-16T03:27:11.200Z,100506.95
2019-05-16T03:29:41.763Z,100511.44
2019-05-16T03:32:14.200Z,100511.59
2019-05-16T03:34:44.120Z,100508.34
2019-05-16T03:37:14.339Z,100504.83
2019-05-16T03:39:40.964Z,100508.36
2019-05-16T03:42:12.462Z,100493.50
2019-05-16T03:44:41.089Z,100500.34
2019-05-16T03:47:11.175Z,100498.58
2019-05-16T03:49:42.291Z,100504.98
2019-05-16T03:52:11.299Z,100508.69
2019-05-16T03:54:41.985Z,100499.84
2019-05-16T03:57:11.591Z,100510.14
2019-05-16T03:59:40.797Z,100503.52
2019-05-16T04:02:10.848Z,100499.73
2019-05-16T04:04:41.698Z,100494.14
2019-05-16T04:07:10.974Z,100493.16
2019-05-16T04:09:41.280Z,100494.58
2019-05-16T04:12:10.790Z,100493.65
2019-05-16T04:14:40.945Z,100490.53
2019-05-16T04:17:10.931Z,100487.97
2019-05-16T04:19:41.524Z,100484.90
2019-05-16T04:22:14.434Z,100487.63
2019-05-16T04:24:43.341Z,100484.26
2019-05-16T04:27:12.285Z,100487.81
2019-05-16T04:29:41.044Z,100492.56
2019-05-16T04:32:11.044Z,100489.61
2019-05-16T04:34:41.747Z,100489.66
2019-05-16T04:37:11.494Z,100494.05
2019-05-16T04:39:41.531Z,100498.90
2019-05-16T04:42:11.063Z,100497.12
2019-05-16T04:44:41.645Z,100495.97
2019-05-16T04:47:11.048Z,100495.28
2019-05-16T04:49:41.285Z,100486.72
2019-05-16T04:52:11.331Z,100490.51
2019-05-16T04:54:41.876Z,100492.58
2019-05-16T04:57:11.941Z,100487.19
2019-05-16T04:59:41.873Z,100493.48
2019-05-16T05:02:12.319Z,100499.09
2019-05-16T05:04:41.519Z,100493.75
2019-05-16T05:07:11.090Z,100492.26
2019-05-16T05:09:40.807Z,100486.50
2019-05-16T05:12:11.422Z,100487.92
2019-05-16T05:14:41.594Z,100489.49
2019-05-16T05:17:10.764Z,100488.50
2019-05-16T05:19:41.464Z,100488.78
2019-05-16T05:22:10.448Z,100493.11
2019-05-16T05:24:40.622Z,100490.48
2019-05-16T05:27:10.496Z,100487.26
2019-05-16T05:29:39.798Z,100488.93
2019-05-16T05:32:14.002Z,100489.13
2019-05-16T05:34:39.857Z,100488.27
2019-05-16T05:37:12.265Z,100480.81
2019-05-16T05:39:39.724Z,100486.32
2019-05-16T05:42:10.402Z,100482.09
2019-05-16T05:44:40.162Z,100481.90
2019-05-16T05:47:10.799Z,100480.33
2019-05-16T05:49:40.479Z,100484.78
2019-05-16T05:52:12.040Z,100484.28
2019-05-16T05:54:40.817Z,100481.45
2019-05-16T05:57:09.898Z,100483.88
2019-05-16T05:59:40.426Z,100477.84
2019-05-16T06:02:11.258Z,100485.78
2019-05-16T06:04:39.590Z,100481.24
2019-05-16T06:07:10.150Z,100481.83
2019-05-16T06:09:50.498Z,100481.34
2019-05-16T06:12:10.516Z,100478.98
2019-05-16T06:14:41.837Z,100482.21
2019-05-16T06:17:11.446Z,100490.67
2019-05-16T06:19:40.191Z,100489.62
2019-05-16T06:22:10.190Z,100490.30
2019-05-16T06:24:39.903Z,100484.39
2019-05-16T06:27:09.858Z,100483.48
2019-05-16T06:29:40.265Z,100478.31
2019-05-16T06:32:10.280Z,100481.47
2019-05-16T06:34:40.389Z,100474.51
2019-05-16T06:37:09.836Z,100472.81
2019-05-16T06:39:42.675Z,100475.83
2019-05-16T06:42:09.874Z,100470.42
2019-05-16T06:44:40.120Z,100470.83
2019-05-16T06:47:17.000Z,100461.39
2019-05-16T06:49:40.253Z,100459.05
2019-05-16T06:52:10.458Z,100459.22
2019-05-16T06:54:40.716Z,100464.77
2019-05-16T06:57:10.609Z,100457.70
2019-05-16T06:59:40.482Z,100461.05
2019-05-16T07:02:12.261Z,100459.05
2019-05-16T07:04:39.810Z,100448.14
2019-05-16T07:07:11.919Z,100453.29
2019-05-16T07:09:40.638Z,100454.78
2019-05-16T07:12:10.505Z,100451.94
2019-05-16T07:14:40.553Z,100452.72
2019-05-16T07:17:09.772Z,100458.77
2019-05-16T07:19:40.645Z,100451.54
2019-05-16T07:22:11.110Z,100457.16
2019-05-16T07:24:40.024Z,100443.38
2019-05-16T07:27:12.168Z,100441.48
2019-05-16T07:29:40.216Z,100437.14
2019-05-16T07:32:08.828Z,100427.47
2019-05-16T07:34:37.416Z,100424.14
2019-05-16T07:37:06.288Z,100418.11
2019-05-16T07:39:35.150Z,100417.71
2019-05-16T07:42:03.677Z,100413.56
2019-05-16T07:44:32.271Z,100413.41
2019-05-16T07:47:01.202Z,100409.69
2019-05-16T07:49:30.427Z,100404.66
2019-05-16T07:52:00.556Z,100405.98
2019-05-16T07:54:34.132Z,100398.92
2019-05-16T07:57:11.507Z,100400.24
2019-05-16T07:59:30.091Z,100407.16
2019-05-16T08:02:00.533Z,100397.86
2019-05-16T08:04:30.413Z,100402.45
2019-05-16T08:07:00.640Z,100416.55
2019-05-16T08:12:02.285Z,100409.14
2019-05-16T08:14:30.827Z,100411.33
2019-05-16T08:17:01.109Z,100409.19
2019-05-16T08:19:30.578Z,100402.92
2019-05-16T08:22:01.382Z,100401.91
2019-05-16T08:24:30.989Z,100388.97
2019-05-16T08:27:01.297Z,100388.28
2019-05-16T08:29:31.650Z,100387.55
2019-05-16T08:34:32.239Z,100389.05
2019-05-16T08:37:01.262Z,100382.75
2019-05-16T08:39:31.073Z,100381.71
2019-05-16T08:42:07.781Z,100376.73
2019-05-16T08:44:32.378Z,100372.84
2019-05-16T08:47:06.289Z,100369.68
2019-05-16T08:49:30.877Z,100367.28
2019-05-16T08:50:05.092Z,100413.03
2019-05-16T08:50:10.273Z,100381.91
2019-05-16T08:52:01.455Z,100369.02
2019-05-16T08:54:31.828Z,100357.11
2019-05-16T08:59:33.963Z,100352.27
2019-05-16T09:02:03.951Z,100351.04
2019-05-16T09:04:33.978Z,100351.63
2019-05-16T09:07:02.159Z,100349.61
2019-05-16T09:09:42.325Z,100339.93
2019-05-16T09:10:31.974Z,100358.77
2019-05-16T09:12:01.469Z,100334.73
2019-05-16T09:14:35.206Z,100334.58
2019-05-16T09:17:00.378Z,100335.23
2019-05-16T09:19:29.172Z,100333.66
2019-05-16T09:21:58.145Z,100331.11
2019-05-16T09:24:27.401Z,100329.33
2019-05-16T09:26:57.876Z,100327.54
2019-05-16T09:29:27.300Z,100325.59
2019-05-16T09:32:09.065Z,100324.66
2019-05-16T09:34:28.340Z,100319.76
2019-05-16T09:37:01.628Z,100307.80
2019-05-16T09:39:28.112Z,100297.25
2019-05-16T09:41:58.750Z,100302.59
2019-05-16T09:44:27.398Z,100296.66
2019-05-16T09:46:57.005Z,100291.30
2019-05-16T09:49:26.123Z,100291.45
2019-05-16T09:51:56.780Z,100286.89
2019-05-16T09:54:27.333Z,100289.52
2019-05-16T09:56:57.173Z,100288.53
2019-05-16T09:59:26.346Z,100277.67
2019-05-16T10:01:57.213Z,100280.52
2019-05-16T10:04:26.709Z,100287.94
2019-05-16T10:06:57.255Z,100278.97
2019-05-16T10:09:40.244Z,100272.86
2019-05-16T10:12:08.227Z,100266.00
2019-05-16T10:14:26.850Z,100262.27
2019-05-16T10:16:57.721Z,100257.33
2019-05-16T10:19:27.547Z,100247.75
2019-05-16T10:22:00.040Z,100241.45
2019-05-16T10:24:26.995Z,100248.09
2019-05-16T10:26:57.209Z,100250.95
2019-05-16T10:29:27.411Z,100248.00
2019-05-16T10:31:56.894Z,100262.84
2019-05-16T10:34:26.569Z,100259.37
2019-05-16T10:36:57.514Z,100259.21
2019-05-16T10:39:26.791Z,100257.39
2019-05-16T10:41:57.402Z,100258.23
2019-05-16T10:44:28.032Z,100254.70
2019-05-16T10:46:56.235Z,100244.16
2019-05-16T10:49:36.487Z,100236.63
2019-05-16T10:51:57.559Z,100239.05
2019-05-16T10:54:27.613Z,100233.92
2019-05-16T10:56:57.695Z,100232.78
2019-05-16T10:59:54.542Z,100230.31
2019-05-16T11:01:59.570Z,100229.03
2019-05-16T11:04:37.219Z,100219.92
2019-05-16T11:06:57.367Z,100217.98
2019-05-16T11:09:25.922Z,100211.91
2019-05-16T11:11:56.961Z,100196.80
2019-05-16T11:14:27.945Z,100201.77
2019-05-16T11:16:54.996Z,100195.75
2019-05-16T11:19:28.073Z,100201.44
2019-05-16T11:21:57.352Z,100191.91
2019-05-16T11:24:29.002Z,100178.92
2019-05-16T11:26:56.758Z,100188.33
2019-05-16T11:29:25.404Z,100184.03
2019-05-16T11:31:54.183Z,100185.83
2019-05-16T11:34:22.708Z,100185.33
2019-05-16T11:36:51.272Z,100175.47
2019-05-16T11:39:19.784Z,100180.53
2019-05-16T11:41:48.309Z,100185.08
2019-05-16T11:44:17.630Z,100179.91
2019-05-16T11:46:49.093Z,100174.45
2019-05-16T11:49:16.715Z,100179.56
2019-05-16T11:51:47.192Z,100174.91
2019-05-16T11:54:15.907Z,100165.26
2019-05-16T11:56:46.397Z,100163.71
2019-05-16T11:59:14.927Z,100168.33
2019-05-16T12:01:43.673Z,100160.89
2019-05-16T12:04:12.212Z,100156.56
2019-05-16T12:06:40.852Z,100153.89
2019-05-16T12:09:09.969Z,100153.14
2019-05-16T12:11:38.547Z,100148.60
2019-05-16T12:14:07.457Z,100149.34
2019-05-16T12:16:38.018Z,100137.48
2019-05-16T12:19:07.041Z,100133.71
2019-05-16T12:21:35.944Z,100142.34
2019-05-16T12:24:07.238Z,100132.80
2019-05-16T12:26:37.303Z,100132.20
2019-05-16T12:29:07.020Z,100135.50
2019-05-16T12:31:37.386Z,100132.30
2019-05-16T12:34:09.473Z,100127.33
2019-05-16T12:36:37.849Z,100128.00
2019-05-16T12:39:08.174Z,100126.80
2019-05-16T12:41:40.991Z,100117.52
2019-05-16T12:44:07.677Z,100114.95
2019-05-16T12:46:36.593Z,100108.67
2019-05-16T12:49:07.061Z,100105.00
2019-05-16T12:51:37.012Z,100096.47
2019-05-16T12:54:07.558Z,100093.16
2019-05-16T12:56:37.745Z,100089.86
2019-05-16T12:59:06.163Z,100084.06
2019-05-16T13:01:38.374Z,100089.34
2019-05-16T13:04:05.392Z,100087.08
2019-05-16T13:06:36.951Z,100080.45
2019-05-16T13:09:06.952Z,100077.27
2019-05-16T13:11:37.791Z,100076.86
2019-05-16T13:14:10.150Z,100070.98
2019-05-16T13:16:37.549Z,100064.17
2019-05-16T13:19:06.985Z,100056.18
2019-05-16T13:21:38.125Z,100050.69
2019-05-16T13:24:06.958Z,100046.34
2019-05-16T13:26:37.313Z,100042.62
2019-05-16T13:29:07.297Z,100039.45
2019-05-16T13:31:37.755Z,100032.15
2019-05-16T13:34:07.468Z,100031.91
2019-05-16T13:36:38.847Z,99977.80
2019-05-16T13:39:08.067Z,100013.93
2019-05-16T13:41:37.833Z,100007.34
2019-05-16T13:44:15.750Z,99994.88
2019-05-16T13:46:37.255Z,99997.38
2019-05-16T13:49:07.282Z,99993.48
2019-05-16T13:51:37.367Z,99987.70
2019-05-16T13:54:07.040Z,99982.44
2019-05-16T13:56:37.674Z,99977.20
2019-05-16T13:59:07.715Z,99963.19
2019-05-16T14:01:36.989Z,99966.75
2019-05-16T14:04:09.551Z,99966.54
2019-05-16T14:06:36.875Z,99964.36
2019-05-16T14:09:07.421Z,99964.09
2019-05-16T14:11:36.501Z,99962.22
2019-05-16T14:14:05.192Z,99959.82
2019-05-16T14:16:33.705Z,99958.70
2019-05-16T14:19:02.223Z,99954.69
2019-05-16T14:21:31.067Z,99952.74
2019-05-16T14:23:59.595Z,99955.17
2019-05-16T14:26:28.136Z,99955.78
2019-05-16T14:28:57.878Z,99949.78
2019-05-16T14:31:26.816Z,99940.13
2019-05-16T14:33:56.779Z,99942.12
2019-05-16T14:36:27.908Z,99934.01
2019-05-16T14:38:57.544Z,99926.97
2019-05-16T14:41:27.874Z,99924.82
2019-05-16T14:43:56.511Z,99927.88
2019-05-16T14:46:27.465Z,99927.22
2019-05-16T14:48:55.271Z,99928.44
2019-05-16T14:51:23.801Z,99933.53
2019-05-16T14:53:52.349Z,99925.91
2019-05-16T14:56:20.838Z,99922.08
2019-05-16T14:58:49.365Z,99925.89
2019-05-16T15:01:17.894Z,99930.03
2019-05-16T15:03:47.257Z,99926.33
2019-05-16T15:06:18.258Z,99928.41
2019-05-16T15:08:47.484Z,99929.27
2019-05-16T15:11:18.041Z,99929.92
2019-05-16T15:13:46.402Z,99925.80
2019-05-16T15:16:16.983Z,99926.63
2019-05-16T15:18:47.491Z,99916.38
2019-05-16T15:21:17.684Z,99911.69
2019-05-16T15:23:45.797Z,99914.21
2019-05-16T15:26:14.292Z,99915.59
2019-05-16T15:28:43.131Z,99912.09
2019-05-16T15:31:11.658Z,99906.48
2019-05-16T15:33:40.557Z,99906.64
2019-05-16T15:36:09.078Z,99905.41
2019-05-16T15:38:37.596Z,99902.56
2019-05-16T15:41:08.219Z,99906.91
2019-05-16T15:43:37.075Z,99893.96
2019-05-16T15:46:08.071Z,99899.70
2019-05-16T15:48:37.033Z,99901.38
2019-05-16T15:51:08.666Z,99904.38
2019-05-16T15:53:36.324Z,99896.57
2019-05-16T15:56:09.609Z,99893.71
2019-05-16T15:58:37.425Z,99886.15
2019-05-16T16:01:07.038Z,99877.78
2019-05-16T16:03:38.090Z,99881.09
2019-05-16T16:06:06.824Z,99884.42
2019-05-16T16:08:37.341Z,99890.64
2019-05-16T16:11:07.398Z,99884.12
2019-05-16T16:13:37.430Z,99889.55
2019-05-16T16:16:09.796Z,99886.17
2019-05-16T16:18:37.653Z,99886.54
2019-05-16T16:21:07.506Z,99891.82
2019-05-16T16:23:37.270Z,99888.89
2019-05-16T16:26:07.082Z,99888.63
2019-05-16T16:28:38.218Z,99894.22
2019-05-16T16:31:07.571Z,99899.92
2019-05-16T16:33:37.496Z,99905.39
2019-05-16T16:36:07.815Z,99910.75
2019-05-16T16:38:37.191Z,99912.73
2019-05-16T16:41:08.082Z,99912.13
2019-05-16T16:43:37.288Z,99919.50
2019-05-16T16:46:12.922Z,99915.84
2019-05-16T16:48:36.289Z,99912.98
2019-05-16T16:51:06.558Z,99913.66
2019-05-16T16:53:37.510Z,99913.12
2019-05-16T16:56:07.420Z,99909.44
2019-05-16T16:58:37.299Z,99911.78
2019-05-16T17:01:07.212Z,99917.16
2019-05-16T17:03:36.747Z,99920.00
2019-05-16T17:06:05.291Z,99915.16
2019-05-16T17:08:33.821Z,99919.64
2019-05-16T17:11:02.384Z,99918.14
2019-05-16T17:13:30.899Z,99924.16
2019-05-16T17:15:59.419Z,99918.45
2019-05-16T17:18:27.938Z,99919.08
2019-05-16T17:20:57.123Z,99917.56
2019-05-16T17:23:26.414Z,99917.70
2019-05-16T17:25:56.625Z,99918.11
2019-05-16T17:28:25.442Z,99923.83
2019-05-16T17:30:56.519Z,99929.19
2019-05-16T17:33:24.183Z,99923.84
2019-05-16T17:35:52.706Z,99927.70
2019-05-16T17:38:21.449Z,99915.46
2019-05-16T17:40:50.081Z,99914.15
2019-05-16T17:43:18.932Z,99914.48
2019-05-16T17:45:47.731Z,99912.14
2019-05-16T17:48:17.647Z,99904.44
2019-05-16T17:50:46.839Z,99915.46
2019-05-16T17:53:17.295Z,99912.59
2019-05-16T17:55:47.259Z,99909.71
2019-05-16T17:58:16.515Z,99921.12
2019-05-16T18:00:47.061Z,99917.23
2019-05-16T18:03:17.350Z,99918.23
2019-05-16T18:05:47.478Z,99919.29
2019-05-16T18:08:15.931Z,99916.73
2019-05-16T18:10:46.950Z,99919.60
2019-05-16T18:13:15.169Z,99923.58
2019-05-16T18:15:43.675Z,99925.83
2019-05-16T18:18:12.461Z,99922.47
2019-05-16T18:20:54.816Z,99923.59
2019-05-16T18:23:11.287Z,99920.66
2019-05-16T18:25:40.141Z,99916.63
2019-05-16T18:28:08.661Z,99916.73
2019-05-16T18:30:37.240Z,99908.68
2019-05-16T18:33:07.419Z,99912.13
2019-05-16T18:35:37.017Z,99907.36
2019-05-16T18:38:07.233Z,99905.93
2019-05-16T18:40:36.773Z,99905.19
2019-05-16T18:43:08.099Z,99903.95
2019-05-16T18:45:36.614Z,99902.10
2019-05-16T18:48:07.496Z,99909.34
2019-05-16T18:50:37.916Z,99908.73
2019-05-16T18:53:06.970Z,99901.53
2019-05-16T18:55:36.962Z,99905.31
2019-05-16T18:58:08.523Z,99905.52
2019-05-16T19:00:37.622Z,99908.13
2019-05-16T19:03:07.717Z,99905.52
2019-05-16T19:05:37.328Z,99909.47
2019-05-16T19:08:07.432Z,99903.45
2019-05-16T19:10:36.838Z,99908.14
2019-05-16T19:13:07.989Z,99905.07
2019-05-16T19:15:37.502Z,99903.75
2019-05-16T19:18:06.784Z,99895.42
2019-05-16T19:20:37.587Z,99897.19
2019-05-16T19:23:07.495Z,99892.78
2019-05-16T19:25:36.284Z,99892.92
2019-05-16T19:28:06.918Z,99893.09
2019-05-16T19:30:37.510Z,99901.87
2019-05-16T19:33:06.892Z,99899.11
2019-05-16T19:35:36.176Z,99900.56
2019-05-16T19:38:06.720Z,99900.30
2019-05-16T19:40:37.725Z,99905.06
2019-05-16T19:43:07.224Z,99898.78
2019-05-16T19:45:37.296Z,99897.60
2019-05-16T19:48:07.199Z,99906.20
2019-05-16T19:50:37.128Z,99907.81
2019-05-16T19:53:07.771Z,99907.69
2019-05-16T19:55:36.703Z,99905.98
2019-05-16T19:58:06.831Z,99914.47
2019-05-16T20:00:37.602Z,99912.22
2019-05-16T20:03:07.754Z,99910.25
2019-05-16T20:05:37.582Z,99916.16
2019-05-16T20:08:06.778Z,99907.39
2019-05-16T20:10:36.647Z,99905.05
2019-05-16T20:13:07.503Z,99904.23
2019-05-16T20:15:36.641Z,99907.73
2019-05-16T20:18:07.590Z,99903.95
2019-05-16T20:20:37.157Z,99902.93
2019-05-16T20:23:06.347Z,99894.13
2019-05-16T20:25:36.515Z,99893.55
2019-05-16T20:28:08.507Z,99896.84
2019-05-16T20:30:37.108Z,99888.86
2019-05-16T20:33:08.973Z,99893.06
2019-05-16T20:35:37.567Z,99890.90
2019-05-16T20:38:06.892Z,99899.88
2019-05-16T20:40:37.558Z,99893.56
2019-05-16T20:43:07.745Z,99893.60
2019-05-16T20:45:39.495Z,99892.19
2019-05-16T20:48:12.185Z,99891.12
2019-05-16T20:50:37.280Z,99902.39
2019-05-16T20:53:07.150Z,99899.11
2019-05-16T20:55:37.716Z,99884.42
2019-05-16T20:58:07.789Z,99891.62
2019-05-16T21:00:37.830Z,99896.93
2019-05-16T21:03:07.198Z,99893.94
2019-05-16T21:05:38.199Z,99898.23
2019-05-16T21:08:06.599Z,99892.09
2019-05-16T21:10:35.268Z,99894.71
2019-05-16T21:13:03.849Z,99894.07
2019-05-16T21:15:32.377Z,99888.86
2019-05-16T21:18:00.920Z,99885.50
2019-05-16T21:20:29.891Z,99878.84
2019-05-16T21:22:58.758Z,99877.60
2019-05-16T21:25:27.265Z,99872.23
2019-05-16T21:27:57.249Z,99872.66
2019-05-16T21:30:27.374Z,99872.13
2019-05-16T21:32:56.522Z,99879.24
2019-05-16T21:35:27.067Z,99875.40
2019-05-16T21:37:55.316Z,99874.02
2019-05-16T21:40:26.301Z,99870.14
2019-05-16T21:42:58.521Z,99876.31
2019-05-16T21:45:28.439Z,99870.30
2019-05-16T21:47:56.606Z,99867.25
2019-05-16T21:50:27.365Z,99870.55
2019-05-16T21:52:56.569Z,99858.53
2019-05-16T21:55:27.367Z,99861.53
2019-05-16T21:57:57.477Z,99861.14
2019-05-16T22:00:31.472Z,99855.14
2019-05-16T22:03:00.019Z,99860.20
2019-05-16T22:05:29.000Z,99854.95
2019-05-16T22:07:57.516Z,99851.41
2019-05-16T22:10:26.726Z,99857.77
2019-05-16T22:12:57.128Z,99856.03
2019-05-16T22:15:25.761Z,99852.02
2019-05-16T22:17:56.501Z,99841.72
2019-05-16T22:20:26.937Z,99841.28
2019-05-16T22:22:57.268Z,99836.31
2019-05-16T22:25:27.290Z,99830.39
2019-05-16T22:27:57.616Z,99830.70
2019-05-16T22:30:27.299Z,99828.31
2019-05-16T22:32:56.195Z,99821.16
2019-05-16T22:35:24.703Z,99812.88
2019-05-16T22:37:57.698Z,99819.52
2019-05-16T22:40:26.810Z,99807.44
2019-05-16T22:42:57.394Z,99806.58
2019-05-16T22:45:27.056Z,99806.81
2019-05-16T22:47:55.849Z,99798.22
2019-05-16T22:50:26.924Z,99795.48
2019-05-16T22:52:56.962Z,99792.81
2019-05-16T22:55:26.480Z,99789.51
2019-05-16T22:57:56.437Z,99784.99
2019-05-16T23:00:28.462Z,99780.31
2019-05-16T23:02:56.996Z,99777.25
2019-05-16T23:05:27.383Z,99773.71
2019-05-16T23:08:05.016Z,99771.26
2019-05-16T23:10:27.990Z,99761.28
2019-05-16T23:12:57.139Z,99761.86
2019-05-16T23:15:26.563Z,99765.58
2019-05-16T23:17:57.391Z,99758.31
2019-05-16T23:20:27.800Z,99754.55
2019-05-16T23:22:56.293Z,99758.31
2019-05-16T23:25:24.857Z,99753.16
2019-05-16T23:27:53.367Z,99757.28
2019-05-16T23:30:22.122Z,99755.17
2019-05-16T23:32:50.638Z,99748.34
2019-05-16T23:35:19.253Z,99744.72
2019-05-16T23:37:47.801Z,99733.13
2019-05-16T23:40:16.284Z,99744.80
2019-05-16T23:42:46.505Z,99736.09
2019-05-16T23:45:17.077Z,99736.86
2019-05-16T23:47:47.103Z,99737.53
2019-05-16T23:50:17.053Z,99732.99
2019-05-16T23:52:47.057Z,99726.52
2019-05-16T23:55:17.470Z,99725.19
2019-05-16T23:57:46.709Z,99722.86
